Hjaltland — VSTY8 — position and weather

sailwx.info

Track history (hours):
 
Tides and Currents Weather Stations Pressure Air Temp Water Temp Dewpoint Dewpoint Depression Visibility Wind Speed Wind Dir Waves Ship Positions

Hjaltland

Operator: NorthLink Orkey & Shetland Ferries Ltd

Last reported at 2019-Apr-26 01:04 UTC. Time now 2019-Apr-26 04:28 UTC.
Position N 59°05' W 002°26'.

Type: Ship. MMSI: 235450000.

Date/timePositionNaut miles runAvg speedWind from/ knotsBaromVisibWave heightAir tempDewpointWater temp
2019-Apr-26 01:04N 59°05' W 002°26'115.1
2019-Apr-26 01:00N 59°04' W 002°27'714.2
2019-Apr-26 00:30N 59°00' W 002°39'815.8
2019-Apr-26 00:00N 59°01' W 002°54'2 1.6
2019-Apr-25 22:28N 58°60' W 002°58'612.2
2019-Apr-25 22:00N 59°00' W 002°48'1019.9
2019-Apr-25 21:30N 58°53' W 002°35'7221.2
2019-Apr-25 18:05N 57°46' W 001°43'120.1
2019-Apr-25 18:00N 57°44' W 001°43'1019.8
2019-Apr-25 17:31N 57°34' W 001°40'1019.5
2019-Apr-25 17:01N 57°25' W 001°42'1121.7
2019-Apr-25 16:30N 57°16' W 001°53'919.0
2019-Apr-25 16:00N 57°08' W 002°04'1 1.3
2019-Apr-25 15:30N 57°09' W 002°05'0 0.0
2019-Apr-25 15:00N 57°09' W 002°05'0 0.0
2019-Apr-25 14:30N 57°09' W 002°05'0 0.0
2019-Apr-25 14:00N 57°09' W 002°05'0 0.0
2019-Apr-25 13:28N 57°09' W 002°05'0 0.0
2019-Apr-25 12:58N 57°09' W 002°05'0 0.0
2019-Apr-25 12:28N 57°09' W 002°05'0 0.0
2019-Apr-25 11:58N 57°09' W 002°05'0 0.0
2019-Apr-25 11:28N 57°09' W 002°05'0 0.0
2019-Apr-25 10:58N 57°09' W 002°05'0 0.0
2019-Apr-25 10:25N 57°09' W 002°05'0 0.0
2019-Apr-25 09:58N 57°09' W 002°05'0 0.0
2019-Apr-25 09:28N 57°09' W 002°05'0 0.0
2019-Apr-25 08:58N 57°09' W 002°05'0 0.0
2019-Apr-25 08:28N 57°09' W 002°05'0 0.0
2019-Apr-25 07:58N 57°09' W 002°05'0 0.0
2019-Apr-25 07:28N 57°09' W 002°05'0 0.0
2019-Apr-25 06:58N 57°09' W 002°05'0 0.0
2019-Apr-25 06:28N 57°09' W 002°05'0 0.0
2019-Apr-25 05:58N 57°09' W 002°05'0 1.1
2019-Apr-25 05:31N 57°09' W 002°05'611.9
2019-Apr-25 05:01N 57°13' W 001°57'918.9
2019-Apr-25 04:30N 57°21' W 001°47'1020.8
2019-Apr-25 04:00N 57°31' W 001°41'1122.2
2019-Apr-25 03:30N 57°41' W 001°44'4721.0
2019-Apr-25 01:16N 58°26' W 002°12'3020.2
2019-Apr-24 23:49N 58°54' W 002°31'619.8
2019-Apr-24 23:30N 58°59' W 002°38'1020.3
2019-Apr-24 23:00N 59°01' W 002°57'2 1.2
2019-Apr-24 21:41N 58°60' W 002°58'2 9.4
2019-Apr-24 21:30N 59°01' W 002°57'816.5
2019-Apr-24 21:00N 59°01' W 002°41'7 0.4
2019-Apr-24 00:38N 59°04' W 002°28'111.7
2019-Apr-24 00:30N 59°03' W 002°30'510.5
2019-Apr-24 00:00N 59°00' W 002°39'612.4
2019-Apr-23 23:30N 59°01' W 002°51'4 2.7
2019-Apr-23 22:03N 58°60' W 002°58'0 0.5
2019-Apr-23 21:59N 58°60' W 002°58'715.1
2019-Apr-23 21:31N 58°60' W 002°45'1421.9
2019-Apr-23 20:53N 58°48' W 002°30'9222.6
2019-Apr-23 16:49N 57°19' W 001°49'722.2
2019-Apr-23 16:30N 57°13' W 001°56'713.5
2019-Apr-23 16:00N 57°09' W 002°05'0 0.5
2019-Apr-23 15:30N 57°09' W 002°05'0 0.0
2019-Apr-23 15:00N 57°09' W 002°05'0 0.0
2019-Apr-23 14:30N 57°09' W 002°05'0 0.0
2019-Apr-23 14:00N 57°09' W 002°05'0 0.0
2019-Apr-23 13:30N 57°09' W 002°05'0 0.0
2019-Apr-23 13:00N 57°09' W 002°05'0 0.0
2019-Apr-23 12:30N 57°09' W 002°05'0 0.0
2019-Apr-23 12:00N 57°09' W 002°05'0 0.0
2019-Apr-23 11:30N 57°09' W 002°05'0 0.0
2019-Apr-23 11:00N 57°09' W 002°05'0 0.0
2019-Apr-23 10:30N 57°09' W 002°05'0 0.0
2019-Apr-23 09:57N 57°09' W 002°05'0 0.0
2019-Apr-23 09:30N 57°09' W 002°05'0 0.0
2019-Apr-23 09:00N 57°09' W 002°05'0 0.0
2019-Apr-23 08:30N 57°09' W 002°05'0 0.0
2019-Apr-23 08:00N 57°09' W 002°05'0 0.0
2019-Apr-23 07:30N 57°09' W 002°05'0 0.0
2019-Apr-23 06:57N 57°09' W 002°05'0 0.0
2019-Apr-23 06:30N 57°09' W 002°05'0 0.0
2019-Apr-23 05:57N 57°09' W 002°05'1 1.3
2019-Apr-23 05:31N 57°08' W 002°04'611.5
2019-Apr-23 05:00N 57°13' W 001°57'10719.3
2019-Apr-22 23:27N 58°58' W 002°39'920.5
2019-Apr-22 23:00N 59°01' W 002°56'2 1.9
2019-Apr-22 22:00N 58°60' W 002°58'510.0
2019-Apr-22 21:30N 59°00' W 002°49'815.5
2019-Apr-22 21:00N 59°01' W 002°34'2118.5
2019-Apr-22 19:54N 59°16' W 002°08'818.9
2019-Apr-22 19:29N 59°22' W 001°58'918.9
2019-Apr-22 19:00N 59°29' W 001°47'918.9
2019-Apr-22 18:30N 59°37' W 001°35'1019.3
2019-Apr-22 18:00N 59°44' W 001°23'1020.1
2019-Apr-22 17:29N 59°53' W 001°13'1618.3
2019-Apr-22 16:37N 60°09' W 001°08'1 7.9
2019-Apr-22 16:30N 60°10' W 001°09'76 4.7
2019-Apr-22 00:08N 59°04' W 002°27'212.3
2019-Apr-22 00:00N 59°03' W 002°29'612.3
2019-Apr-21 23:31N 59°00' W 002°39'714.7
2019-Apr-21 23:00N 59°01' W 002°54'3 2.5
2019-Apr-21 21:57N 58°60' W 002°58'4 9.4
2019-Apr-21 21:30N 59°01' W 002°50'915.8
2019-Apr-21 20:57N 58°56' W 002°37'817.7
2019-Apr-21 20:30N 58°48' W 002°30'1424.0
2019-Apr-21 19:55N 58°35' W 002°20'7723.5
2019-Apr-21 16:37N 57°20' W 001°48'324.1
2019-Apr-21 16:30N 57°18' W 001°51'1122.5
2019-Apr-21 16:00N 57°09' W 002°03'1 2.1
2019-Apr-21 15:30N 57°09' W 002°05'0 0.0
2019-Apr-21 15:00N 57°09' W 002°05'0 0.0
2019-Apr-21 14:30N 57°09' W 002°05'0 0.0
2019-Apr-21 14:00N 57°09' W 002°05'0 0.0
2019-Apr-21 13:30N 57°09' W 002°05'0 0.0
2019-Apr-21 13:00N 57°09' W 002°05'0 0.0
2019-Apr-21 12:30N 57°09' W 002°05'0 0.0
2019-Apr-21 12:00N 57°09' W 002°05'0 0.0
2019-Apr-21 11:30N 57°09' W 002°05'0 0.0
2019-Apr-21 11:00N 57°09' W 002°05'0 0.0
2019-Apr-21 10:30N 57°09' W 002°05'0 0.0
2019-Apr-21 10:00N 57°09' W 002°05'0 0.0
2019-Apr-21 09:30N 57°09' W 002°05'0 0.0
2019-Apr-21 09:00N 57°09' W 002°05'0 0.0
2019-Apr-21 08:30N 57°09' W 002°05'0 0.0
2019-Apr-21 08:00N 57°09' W 002°05'0 0.0
2019-Apr-21 07:30N 57°09' W 002°05'0 0.0
2019-Apr-21 07:00N 57°09' W 002°05'0 0.0
2019-Apr-21 06:30N 57°09' W 002°05'0 0.0
2019-Apr-21 06:00N 57°09' W 002°05'1 1.3
2019-Apr-21 05:30N 57°08' W 002°04'611.1
2019-Apr-21 05:00N 57°12' W 001°57'713.2
2019-Apr-21 04:30N 57°18' W 001°50'713.6
2019-Apr-21 04:00N 57°23' W 001°42'89 3.2
2019-Apr-20 00:23N 58°52' W 001°20'616.8
2019-Apr-20 00:00N 58°45' W 001°22'816.4
2019-Apr-19 23:30N 58°37' W 001°25'816.1
2019-Apr-19 23:00N 58°29' W 001°28'915.8
2019-Apr-19 22:27N 58°21' W 001°31'815.6
2019-Apr-19 21:58N 58°13' W 001°33'916.0
2019-Apr-19 21:24N 58°04' W 001°36'4617.0
2019-Apr-19 18:40N 57°18' W 001°48'318.2
2019-Apr-19 18:30N 57°16' W 001°52'917.9
2019-Apr-19 18:00N 57°09' W 002°02'2 3.5
2019-Apr-19 17:30N 57°09' W 002°05'0 0.0
2019-Apr-19 17:00N 57°09' W 002°05'0 0.0
2019-Apr-19 16:30N 57°09' W 002°05'0 0.0
2019-Apr-19 16:00N 57°09' W 002°05'0 0.0
2019-Apr-19 15:30N 57°09' W 002°05'0 0.0
2019-Apr-19 15:00N 57°09' W 002°05'0 0.0
2019-Apr-19 14:30N 57°09' W 002°05'0 0.0
2019-Apr-19 14:00N 57°09' W 002°05'0 0.0
2019-Apr-19 13:30N 57°09' W 002°05'0 0.0
2019-Apr-19 13:00N 57°09' W 002°05'0 0.0
2019-Apr-19 12:30N 57°09' W 002°05'0 0.0
2019-Apr-19 12:00N 57°09' W 002°05'0 0.0
2019-Apr-19 11:30N 57°09' W 002°05'0 0.0
2019-Apr-19 11:00N 57°09' W 002°05'0 0.0
2019-Apr-19 10:30N 57°09' W 002°05'0 0.0
2019-Apr-19 10:00N 57°09' W 002°05'0 0.0
2019-Apr-19 09:30N 57°09' W 002°05'0 0.0
2019-Apr-19 09:00N 57°09' W 002°05'0 0.0
2019-Apr-19 08:30N 57°09' W 002°05'0 0.0
2019-Apr-19 08:00N 57°09' W 002°05'0 0.0
2019-Apr-19 07:30N 57°09' W 002°05'0 0.0
2019-Apr-19 07:00N 57°09' W 002°05'0 0.0
2019-Apr-19 06:30N 57°09' W 002°05'0 0.0
2019-Apr-19 06:00N 57°09' W 002°05'1 1.1
2019-Apr-19 05:30N 57°09' W 002°04'611.8
2019-Apr-19 05:00N 57°13' W 001°56'3213.6
2019-Apr-19 02:39N 57°42' W 001°35'517.5
2019-Apr-19 02:22N 57°47' W 001°35'617.4
2019-Apr-19 02:00N 57°54' W 001°34'10117.7
2019-Apr-18 20:16N 59°34' W 001°13'85 3.8
2019-Apr-17 22:03N 58°10' W 001°33'116.3
2019-Apr-17 22:00N 58°09' W 001°33'1116.3
2019-Apr-17 21:19N 57°58' W 001°34'716.7
2019-Apr-17 20:55N 57°52' W 001°35'716.7
2019-Apr-17 20:30N 57°45' W 001°36'2816.6
2019-Apr-17 18:49N 57°18' W 001°50'517.8
2019-Apr-17 18:31N 57°13' W 001°57'713.0
2019-Apr-17 18:00N 57°09' W 002°05'1 1.0
2019-Apr-17 17:28N 57°09' W 002°05'0 0.0
2019-Apr-17 16:58N 57°09' W 002°05'0 0.0
2019-Apr-17 16:25N 57°09' W 002°05'0 0.0
2019-Apr-17 15:58N 57°09' W 002°05'0 0.0
2019-Apr-17 15:28N 57°09' W 002°05'0 0.0
2019-Apr-17 14:58N 57°09' W 002°05'0 0.0
2019-Apr-17 14:28N 57°09' W 002°05'0 0.0
2019-Apr-17 13:58N 57°09' W 002°05'0 0.0
2019-Apr-17 13:28N 57°09' W 002°05'0 0.0
2019-Apr-17 12:58N 57°09' W 002°05'0 0.0
2019-Apr-17 12:28N 57°09' W 002°05'0 0.0
2019-Apr-17 11:58N 57°09' W 002°05'0 0.0
2019-Apr-17 11:28N 57°09' W 002°05'0 0.0
2019-Apr-17 10:58N 57°09' W 002°05'0 0.0
2019-Apr-17 10:28N 57°09' W 002°05'0 0.0
2019-Apr-17 09:58N 57°09' W 002°05'0 0.0
2019-Apr-17 09:28N 57°09' W 002°05'0 0.0
2019-Apr-17 08:58N 57°09' W 002°05'0 0.0
2019-Apr-17 08:28N 57°09' W 002°05'0 0.0
2019-Apr-17 07:58N 57°09' W 002°05'0 0.0
2019-Apr-17 07:28N 57°09' W 002°05'0 0.0
2019-Apr-17 06:58N 57°09' W 002°05'0 0.0
2019-Apr-17 06:28N 57°09' W 002°05'0 0.0
2019-Apr-17 05:58N 57°09' W 002°05'1 1.2
2019-Apr-17 05:31N 57°08' W 002°04'611.9
2019-Apr-17 05:01N 57°12' W 001°56'  
Track history (hours):
 
Tides and Currents Weather Stations Pressure Air Temp Water Temp Dewpoint Dewpoint Depression Visibility Wind Speed Wind Dir Waves Ship Positions

Hjaltland

Operator: NorthLink Orkey & Shetland Ferries Ltd

Last reported at 2019-Apr-26 01:04 UTC. Time now 2019-Apr-26 04:28 UTC.
Position N 59°05' W 002°26'.

Type: Ship. MMSI: 235450000.

Date/timePositionNaut miles runAvg speedWind from/ knotsBaromVisibWave heightAir tempDewpointWater temp
2019-Apr-26 01:04N 59°05' W 002°26'115.1
2019-Apr-26 01:00N 59°04' W 002°27'714.2
2019-Apr-26 00:30N 59°00' W 002°39'815.8
2019-Apr-26 00:00N 59°01' W 002°54'2 1.6
2019-Apr-25 22:28N 58°60' W 002°58'612.2
2019-Apr-25 22:00N 59°00' W 002°48'1019.9
2019-Apr-25 21:30N 58°53' W 002°35'7221.2
2019-Apr-25 18:05N 57°46' W 001°43'120.1
2019-Apr-25 18:00N 57°44' W 001°43'1019.8
2019-Apr-25 17:31N 57°34' W 001°40'1019.5
2019-Apr-25 17:01N 57°25' W 001°42'1121.7
2019-Apr-25 16:30N 57°16' W 001°53'919.0
2019-Apr-25 16:00N 57°08' W 002°04'1 1.3
2019-Apr-25 15:30N 57°09' W 002°05'0 0.0
2019-Apr-25 15:00N 57°09' W 002°05'0 0.0
2019-Apr-25 14:30N 57°09' W 002°05'0 0.0
2019-Apr-25 14:00N 57°09' W 002°05'0 0.0
2019-Apr-25 13:28N 57°09' W 002°05'0 0.0
2019-Apr-25 12:58N 57°09' W 002°05'0 0.0
2019-Apr-25 12:28N 57°09' W 002°05'0 0.0
2019-Apr-25 11:58N 57°09' W 002°05'0 0.0
2019-Apr-25 11:28N 57°09' W 002°05'0 0.0
2019-Apr-25 10:58N 57°09' W 002°05'0 0.0
2019-Apr-25 10:25N 57°09' W 002°05'0 0.0
2019-Apr-25 09:58N 57°09' W 002°05'0 0.0
2019-Apr-25 09:28N 57°09' W 002°05'0 0.0
2019-Apr-25 08:58N 57°09' W 002°05'0 0.0
2019-Apr-25 08:28N 57°09' W 002°05'0 0.0
2019-Apr-25 07:58N 57°09' W 002°05'0 0.0
2019-Apr-25 07:28N 57°09' W 002°05'0 0.0
2019-Apr-25 06:58N 57°09' W 002°05'0 0.0
2019-Apr-25 06:28N 57°09' W 002°05'0 0.0
2019-Apr-25 05:58N 57°09' W 002°05'0 1.1
2019-Apr-25 05:31N 57°09' W 002°05'611.9
2019-Apr-25 05:01N 57°13' W 001°57'918.9
2019-Apr-25 04:30N 57°21' W 001°47'1020.8
2019-Apr-25 04:00N 57°31' W 001°41'1122.2
2019-Apr-25 03:30N 57°41' W 001°44'4721.0
2019-Apr-25 01:16N 58°26' W 002°12'3020.2
2019-Apr-24 23:49N 58°54' W 002°31'619.8
2019-Apr-24 23:30N 58°59' W 002°38'1020.3
2019-Apr-24 23:00N 59°01' W 002°57'2 1.2
2019-Apr-24 21:41N 58°60' W 002°58'2 9.4
2019-Apr-24 21:30N 59°01' W 002°57'816.5
2019-Apr-24 21:00N 59°01' W 002°41'7 0.4
2019-Apr-24 00:38N 59°04' W 002°28'111.7
2019-Apr-24 00:30N 59°03' W 002°30'510.5
2019-Apr-24 00:00N 59°00' W 002°39'612.4
2019-Apr-23 23:30N 59°01' W 002°51'4 2.7
2019-Apr-23 22:03N 58°60' W 002°58'0 0.5
2019-Apr-23 21:59N 58°60' W 002°58'715.1
2019-Apr-23 21:31N 58°60' W 002°45'1421.9
2019-Apr-23 20:53N 58°48' W 002°30'9222.6
2019-Apr-23 16:49N 57°19' W 001°49'722.2
2019-Apr-23 16:30N 57°13' W 001°56'713.5
2019-Apr-23 16:00N 57°09' W 002°05'0 0.5
2019-Apr-23 15:30N 57°09' W 002°05'0 0.0
2019-Apr-23 15:00N 57°09' W 002°05'0 0.0
2019-Apr-23 14:30N 57°09' W 002°05'0 0.0
2019-Apr-23 14:00N 57°09' W 002°05'0 0.0
2019-Apr-23 13:30N 57°09' W 002°05'0 0.0
2019-Apr-23 13:00N 57°09' W 002°05'0 0.0
2019-Apr-23 12:30N 57°09' W 002°05'0 0.0
2019-Apr-23 12:00N 57°09' W 002°05'0 0.0
2019-Apr-23 11:30N 57°09' W 002°05'0 0.0
2019-Apr-23 11:00N 57°09' W 002°05'0 0.0
2019-Apr-23 10:30N 57°09' W 002°05'0 0.0
2019-Apr-23 09:57N 57°09' W 002°05'0 0.0
2019-Apr-23 09:30N 57°09' W 002°05'0 0.0
2019-Apr-23 09:00N 57°09' W 002°05'0 0.0
2019-Apr-23 08:30N 57°09' W 002°05'0 0.0
2019-Apr-23 08:00N 57°09' W 002°05'0 0.0
2019-Apr-23 07:30N 57°09' W 002°05'0 0.0
2019-Apr-23 06:57N 57°09' W 002°05'0 0.0
2019-Apr-23 06:30N 57°09' W 002°05'0 0.0
2019-Apr-23 05:57N 57°09' W 002°05'1 1.3
2019-Apr-23 05:31N 57°08' W 002°04'611.5
2019-Apr-23 05:00N 57°13' W 001°57'10719.3
2019-Apr-22 23:27N 58°58' W 002°39'920.5
2019-Apr-22 23:00N 59°01' W 002°56'2 1.9
2019-Apr-22 22:00N 58°60' W 002°58'510.0
2019-Apr-22 21:30N 59°00' W 002°49'815.5
2019-Apr-22 21:00N 59°01' W 002°34'2118.5
2019-Apr-22 19:54N 59°16' W 002°08'818.9
2019-Apr-22 19:29N 59°22' W 001°58'918.9
2019-Apr-22 19:00N 59°29' W 001°47'918.9
2019-Apr-22 18:30N 59°37' W 001°35'1019.3
2019-Apr-22 18:00N 59°44' W 001°23'1020.1
2019-Apr-22 17:29N 59°53' W 001°13'1618.3
2019-Apr-22 16:37N 60°09' W 001°08'1 7.9
2019-Apr-22 16:30N 60°10' W 001°09'76 4.7
2019-Apr-22 00:08N 59°04' W 002°27'212.3
2019-Apr-22 00:00N 59°03' W 002°29'612.3
2019-Apr-21 23:31N 59°00' W 002°39'714.7
2019-Apr-21 23:00N 59°01' W 002°54'3 2.5
2019-Apr-21 21:57N 58°60' W 002°58'4 9.4
2019-Apr-21 21:30N 59°01' W 002°50'915.8
2019-Apr-21 20:57N 58°56' W 002°37'817.7
2019-Apr-21 20:30N 58°48' W 002°30'1424.0
2019-Apr-21 19:55N 58°35' W 002°20'7723.5
2019-Apr-21 16:37N 57°20' W 001°48'324.1
2019-Apr-21 16:30N 57°18' W 001°51'1122.5
2019-Apr-21 16:00N 57°09' W 002°03'1 2.1
2019-Apr-21 15:30N 57°09' W 002°05'0 0.0
2019-Apr-21 15:00N 57°09' W 002°05'0 0.0
2019-Apr-21 14:30N 57°09' W 002°05'0 0.0
2019-Apr-21 14:00N 57°09' W 002°05'0 0.0
2019-Apr-21 13:30N 57°09' W 002°05'0 0.0
2019-Apr-21 13:00N 57°09' W 002°05'0 0.0
2019-Apr-21 12:30N 57°09' W 002°05'0 0.0
2019-Apr-21 12:00N 57°09' W 002°05'0 0.0
2019-Apr-21 11:30N 57°09' W 002°05'0 0.0
2019-Apr-21 11:00N 57°09' W 002°05'0 0.0
2019-Apr-21 10:30N 57°09' W 002°05'0 0.0
2019-Apr-21 10:00N 57°09' W 002°05'0 0.0
2019-Apr-21 09:30N 57°09' W 002°05'0 0.0
2019-Apr-21 09:00N 57°09' W 002°05'0 0.0
2019-Apr-21 08:30N 57°09' W 002°05'0 0.0
2019-Apr-21 08:00N 57°09' W 002°05'0 0.0
2019-Apr-21 07:30N 57°09' W 002°05'0 0.0
2019-Apr-21 07:00N 57°09' W 002°05'0 0.0
2019-Apr-21 06:30N 57°09' W 002°05'0 0.0
2019-Apr-21 06:00N 57°09' W 002°05'1 1.3
2019-Apr-21 05:30N 57°08' W 002°04'611.1
2019-Apr-21 05:00N 57°12' W 001°57'713.2
2019-Apr-21 04:30N 57°18' W 001°50'713.6
2019-Apr-21 04:00N 57°23' W 001°42'89 3.2
2019-Apr-20 00:23N 58°52' W 001°20'616.8
2019-Apr-20 00:00N 58°45' W 001°22'816.4
2019-Apr-19 23:30N 58°37' W 001°25'816.1
2019-Apr-19 23:00N 58°29' W 001°28'915.8
2019-Apr-19 22:27N 58°21' W 001°31'815.6
2019-Apr-19 21:58N 58°13' W 001°33'916.0
2019-Apr-19 21:24N 58°04' W 001°36'4617.0
2019-Apr-19 18:40N 57°18' W 001°48'318.2
2019-Apr-19 18:30N 57°16' W 001°52'917.9
2019-Apr-19 18:00N 57°09' W 002°02'2 3.5
2019-Apr-19 17:30N 57°09' W 002°05'0 0.0
2019-Apr-19 17:00N 57°09' W 002°05'0 0.0
2019-Apr-19 16:30N 57°09' W 002°05'0 0.0
2019-Apr-19 16:00N 57°09' W 002°05'0 0.0
2019-Apr-19 15:30N 57°09' W 002°05'0 0.0
2019-Apr-19 15:00N 57°09' W 002°05'0 0.0
2019-Apr-19 14:30N 57°09' W 002°05'0 0.0
2019-Apr-19 14:00N 57°09' W 002°05'0 0.0
2019-Apr-19 13:30N 57°09' W 002°05'0 0.0
2019-Apr-19 13:00N 57°09' W 002°05'0 0.0
2019-Apr-19 12:30N 57°09' W 002°05'0 0.0
2019-Apr-19 12:00N 57°09' W 002°05'0 0.0
2019-Apr-19 11:30N 57°09' W 002°05'0 0.0
2019-Apr-19 11:00N 57°09' W 002°05'0 0.0
2019-Apr-19 10:30N 57°09' W 002°05'0 0.0
2019-Apr-19 10:00N 57°09' W 002°05'0 0.0
2019-Apr-19 09:30N 57°09' W 002°05'0 0.0
2019-Apr-19 09:00N 57°09' W 002°05'0 0.0
2019-Apr-19 08:30N 57°09' W 002°05'0 0.0
2019-Apr-19 08:00N 57°09' W 002°05'0 0.0
2019-Apr-19 07:30N 57°09' W 002°05'0 0.0
2019-Apr-19 07:00N 57°09' W 002°05'0 0.0
2019-Apr-19 06:30N 57°09' W 002°05'0 0.0
2019-Apr-19 06:00N 57°09' W 002°05'1 1.1
2019-Apr-19 05:30N 57°09' W 002°04'611.8
2019-Apr-19 05:00N 57°13' W 001°56'3213.6
2019-Apr-19 02:39N 57°42' W 001°35'517.5
2019-Apr-19 02:22N 57°47' W 001°35'617.4
2019-Apr-19 02:00N 57°54' W 001°34'10117.7
2019-Apr-18 20:16N 59°34' W 001°13'85 3.8
2019-Apr-17 22:03N 58°10' W 001°33'116.3
2019-Apr-17 22:00N 58°09' W 001°33'1116.3
2019-Apr-17 21:19N 57°58' W 001°34'716.7
2019-Apr-17 20:55N 57°52' W 001°35'716.7
2019-Apr-17 20:30N 57°45' W 001°36'2816.6
2019-Apr-17 18:49N 57°18' W 001°50'517.8
2019-Apr-17 18:31N 57°13' W 001°57'713.0
2019-Apr-17 18:00N 57°09' W 002°05'1 1.0
2019-Apr-17 17:28N 57°09' W 002°05'0 0.0
2019-Apr-17 16:58N 57°09' W 002°05'0 0.0
2019-Apr-17 16:25N 57°09' W 002°05'0 0.0
2019-Apr-17 15:58N 57°09' W 002°05'0 0.0
2019-Apr-17 15:28N 57°09' W 002°05'0 0.0
2019-Apr-17 14:58N 57°09' W 002°05'0 0.0
2019-Apr-17 14:28N 57°09' W 002°05'0 0.0
2019-Apr-17 13:58N 57°09' W 002°05'0 0.0
2019-Apr-17 13:28N 57°09' W 002°05'0 0.0
2019-Apr-17 12:58N 57°09' W 002°05'0 0.0
2019-Apr-17 12:28N 57°09' W 002°05'0 0.0
2019-Apr-17 11:58N 57°09' W 002°05'0 0.0
2019-Apr-17 11:28N 57°09' W 002°05'0 0.0
2019-Apr-17 10:58N 57°09' W 002°05'0 0.0
2019-Apr-17 10:28N 57°09' W 002°05'0 0.0
2019-Apr-17 09:58N 57°09' W 002°05'0 0.0
2019-Apr-17 09:28N 57°09' W 002°05'0 0.0
2019-Apr-17 08:58N 57°09' W 002°05'0 0.0
2019-Apr-17 08:28N 57°09' W 002°05'0 0.0
2019-Apr-17 07:58N 57°09' W 002°05'0 0.0
2019-Apr-17 07:28N 57°09' W 002°05'0 0.0
2019-Apr-17 06:58N 57°09' W 002°05'0 0.0
2019-Apr-17 06:28N 57°09' W 002°05'0 0.0
2019-Apr-17 05:58N 57°09' W 002°05'1 1.2
2019-Apr-17 05:31N 57°08' W 002°04'611.9
2019-Apr-17 05:01N 57°12' W 001°56'  

Dump ship's entire track history